sensor_id;sensor_type;location;lat;lon;timestamp;pressure;altitude;pressure_sealevel;temperature;humidity
52511;BME280;63918;51.700;17.998;2022-12-18T00:01:22;101538.90;;;-3.96;100.00
52511;BME280;63918;51.700;17.998;2022-12-18T00:03:50;101539.83;;;-3.93;100.00
52511;BME280;63918;51.700;17.998;2022-12-18T00:06:19;101536.02;;;-3.89;100.00
52511;BME280;63918;51.700;17.998;2022-12-18T00:08:46;101535.58;;;-3.98;100.00
52511;BME280;63918;51.700;17.998;2022-12-18T00:11:16;101539.61;;;-4.00;100.00
52511;BME280;63918;51.700;17.998;2022-12-18T00:13:42;101537.04;;;-4.06;100.00
52511;BME280;63918;51.700;17.998;2022-12-18T00:16:12;101541.40;;;-4.03;100.00
52511;BME280;63918;51.700;17.998;2022-12-18T00:18:40;101540.41;;;-3.96;100.00
52511;BME280;63918;51.700;17.998;2022-12-18T00:21:09;101541.98;;;-3.90;100.00
52511;BME280;63918;51.700;17.998;2022-12-18T00:23:37;101549.37;;;-3.95;100.00
52511;BME280;63918;51.700;17.998;2022-12-18T00:26:06;101552.97;;;-4.18;100.00
52511;BME280;63918;51.700;17.998;2022-12-18T00:28:33;101562.54;;;-4.13;100.00
52511;BME280;63918;51.700;17.998;2022-12-18T00:31:05;101564.86;;;-4.22;100.00
52511;BME280;63918;51.700;17.998;2022-12-18T00:33:32;101567.60;;;-4.14;100.00
52511;BME280;63918;51.700;17.998;2022-12-18T00:36:03;101572.63;;;-4.18;100.00
52511;BME280;63918;51.700;17.998;2022-12-18T00:38:30;101583.21;;;-4.18;100.00
52511;BME280;63918;51.700;17.998;2022-12-18T00:40:57;101585.74;;;-4.21;100.00
52511;BME280;63918;51.700;17.998;2022-12-18T00:43:23;101580.36;;;-4.25;100.00
52511;BME280;63918;51.700;17.998;2022-12-18T00:45:50;101579.14;;;-4.23;100.00
52511;BME280;63918;51.700;17.998;2022-12-18T00:48:16;101578.62;;;-4.27;100.00
52511;BME280;63918;51.700;17.998;2022-12-18T00:50:43;101581.84;;;-4.26;100.00
52511;BME280;63918;51.700;17.998;2022-12-18T00:53:10;101580.15;;;-4.37;100.00
52511;BME280;63918;51.700;17.998;2022-12-18T00:55:39;101593.73;;;-4.33;100.00
52511;BME280;63918;51.700;17.998;2022-12-18T00:58:05;101600.55;;;-4.36;100.00
52511;BME280;63918;51.700;17.998;2022-12-18T01:00:32;101603.55;;;-4.41;100.00
52511;BME280;63918;51.700;17.998;2022-12-18T01:02:59;101605.90;;;-4.44;100.00
52511;BME280;63918;51.700;17.998;2022-12-18T01:05:26;101610.30;;;-4.51;100.00
52511;BME280;63918;51.700;17.998;2022-12-18T01:07:53;101610.42;;;-4.61;100.00
52511;BME280;63918;51.700;17.998;2022-12-18T01:10:21;101614.55;;;-4.59;100.00
52511;BME280;63918;51.700;17.998;2022-12-18T01:12:47;101617.32;;;-4.59;100.00
52511;BME280;63918;51.700;17.998;2022-12-18T01:15:14;101617.92;;;-4.69;100.00
52511;BME280;63918;51.700;17.998;2022-12-18T01:17:41;101620.65;;;-4.68;100.00
52511;BME280;63918;51.700;17.998;2022-12-18T01:20:10;101622.41;;;-4.74;100.00
52511;BME280;63918;51.700;17.998;2022-12-18T01:22:37;101622.88;;;-4.73;100.00
52511;BME280;63918;51.700;17.998;2022-12-18T01:25:04;101621.44;;;-4.77;100.00
52511;BME280;63918;51.700;17.998;2022-12-18T01:27:33;101625.95;;;-4.77;100.00
52511;BME280;63918;51.700;17.998;2022-12-18T01:30:00;101626.40;;;-4.73;100.00
52511;BME280;63918;51.700;17.998;2022-12-18T01:32:29;101629.67;;;-4.76;100.00
52511;BME280;63918;51.700;17.998;2022-12-18T01:34:56;101627.14;;;-4.75;100.00
52511;BME280;63918;51.700;17.998;2022-12-18T01:37:23;101624.85;;;-4.90;100.00
52511;BME280;63918;51.700;17.998;2022-12-18T01:39:52;101620.71;;;-4.89;100.00
52511;BME280;63918;51.700;17.998;2022-12-18T01:42:20;101621.98;;;-4.95;100.00
52511;BME280;63918;51.700;17.998;2022-12-18T01:44:58;101626.14;;;-5.01;100.00
52511;BME280;63918;51.700;17.998;2022-12-18T01:47:36;101618.27;;;-5.08;100.00
52511;BME280;63918;51.700;17.998;2022-12-18T01:50:15;101619.95;;;-5.11;100.00
52511;BME280;63918;51.700;17.998;2022-12-18T01:52:48;101630.47;;;-5.11;100.00
52511;BME280;63918;51.700;17.998;2022-12-18T01:55:18;101635.27;;;-5.14;100.00
52511;BME280;63918;51.700;17.998;2022-12-18T01:57:46;101643.26;;;-5.07;100.00
52511;BME280;63918;51.700;17.998;2022-12-18T02:00:17;101648.64;;;-5.08;100.00
52511;BME280;63918;51.700;17.998;2022-12-18T02:02:45;101649.68;;;-5.15;100.00
52511;BME280;63918;51.700;17.998;2022-12-18T02:05:20;101654.02;;;-5.23;100.00
52511;BME280;63918;51.700;17.998;2022-12-18T02:10:36;101661.23;;;-5.29;100.00
52511;BME280;63918;51.700;17.998;2022-12-18T02:15:42;101666.98;;;-5.45;100.00
52511;BME280;63918;51.700;17.998;2022-12-18T02:18:15;101667.97;;;-5.51;100.00
52511;BME280;63918;51.700;17.998;2022-12-18T02:20:48;101673.33;;;-5.64;100.00
52511;BME280;63918;51.700;17.998;2022-12-18T02:23:44;101677.46;;;-5.63;100.00
52511;BME280;63918;51.700;17.998;2022-12-18T02:26:26;101679.17;;;-5.60;100.00
52511;BME280;63918;51.700;17.998;2022-12-18T02:29:00;101682.56;;;-5.53;100.00
52511;BME280;63918;51.700;17.998;2022-12-18T02:31:45;101679.08;;;-5.46;100.00
52511;BME280;63918;51.700;17.998;2022-12-18T02:34:14;101684.48;;;-5.57;100.00
52511;BME280;63918;51.700;17.998;2022-12-18T02:36:43;101689.10;;;-5.68;100.00
52511;BME280;63918;51.700;17.998;2022-12-18T02:39:13;101689.97;;;-5.66;100.00
52511;BME280;63918;51.700;17.998;2022-12-18T02:41:40;101695.96;;;-5.70;100.00
52511;BME280;63918;51.700;17.998;2022-12-18T02:44:09;101702.34;;;-5.80;100.00
52511;BME280;63918;51.700;17.998;2022-12-18T02:46:39;101690.50;;;-5.81;100.00
52511;BME280;63918;51.700;17.998;2022-12-18T02:49:29;101699.17;;;-5.81;100.00
52511;BME280;63918;51.700;17.998;2022-12-18T02:52:07;101708.98;;;-5.85;100.00
52511;BME280;63918;51.700;17.998;2022-12-18T02:57:40;101717.97;;;-5.86;100.00
52511;BME280;63918;51.700;17.998;2022-12-18T03:00:35;101718.98;;;-5.90;100.00
52511;BME280;63918;51.700;17.998;2022-12-18T03:03:11;101721.17;;;-5.89;100.00
52511;BME280;63918;51.700;17.998;2022-12-18T03:05:48;101724.12;;;-5.96;100.00
52511;BME280;63918;51.700;17.998;2022-12-18T03:08:21;101730.44;;;-5.94;100.00
52511;BME280;63918;51.700;17.998;2022-12-18T03:10:54;101732.86;;;-5.99;100.00
52511;BME280;63918;51.700;17.998;2022-12-18T03:13:27;101736.31;;;-6.12;100.00
52511;BME280;63918;51.700;17.998;2022-12-18T03:15:58;101733.85;;;-6.08;100.00
52511;BME280;63918;51.700;17.998;2022-12-18T03:18:30;101731.98;;;-6.03;100.00
52511;BME280;63918;51.700;17.998;2022-12-18T03:21:03;101730.75;;;-6.03;100.00
52511;BME280;63918;51.700;17.998;2022-12-18T03:23:34;101736.48;;;-6.10;100.00
52511;BME280;63918;51.700;17.998;2022-12-18T03:26:10;101737.20;;;-6.16;100.00
52511;BME280;63918;51.700;17.998;2022-12-18T03:28:42;101737.50;;;-6.04;100.00
52511;BME280;63918;51.700;17.998;2022-12-18T03:31:12;101739.62;;;-5.98;100.00
52511;BME280;63918;51.700;17.998;2022-12-18T03:33:54;101740.45;;;-6.03;100.00
52511;BME280;63918;51.700;17.998;2022-12-18T03:36:22;101739.09;;;-5.98;100.00
52511;BME280;63918;51.700;17.998;2022-12-18T03:38:50;101741.50;;;-6.01;100.00
52511;BME280;63918;51.700;17.998;2022-12-18T03:41:32;101743.36;;;-6.00;100.00
52511;BME280;63918;51.700;17.998;2022-12-18T03:44:11;101742.38;;;-5.97;100.00
52511;BME280;63918;51.700;17.998;2022-12-18T03:49:35;101748.75;;;-5.97;100.00
52511;BME280;63918;51.700;17.998;2022-12-18T03:52:09;101750.60;;;-5.98;100.00
52511;BME280;63918;51.700;17.998;2022-12-18T03:54:38;101760.75;;;-6.07;100.00
52511;BME280;63918;51.700;17.998;2022-12-18T03:57:11;101763.71;;;-6.19;100.00
52511;BME280;63918;51.700;17.998;2022-12-18T03:59:40;101764.99;;;-6.18;100.00
52511;BME280;63918;51.700;17.998;2022-12-18T04:02:07;101768.15;;;-6.11;100.00
52511;BME280;63918;51.700;17.998;2022-12-18T04:04:37;101774.22;;;-5.98;100.00
52511;BME280;63918;51.700;17.998;2022-12-18T04:07:05;101769.02;;;-5.97;100.00
52511;BME280;63918;51.700;17.998;2022-12-18T04:09:33;101771.66;;;-5.99;100.00
52511;BME280;63918;51.700;17.998;2022-12-18T04:12:00;101779.52;;;-6.06;100.00
52511;BME280;63918;51.700;17.998;2022-12-18T04:14:26;101783.16;;;-6.06;100.00
52511;BME280;63918;51.700;17.998;2022-12-18T04:16:53;101786.25;;;-6.15;100.00
52511;BME280;63918;51.700;17.998;2022-12-18T04:19:19;101787.17;;;-6.13;100.00
52511;BME280;63918;51.700;17.998;2022-12-18T04:21:46;101784.94;;;-6.22;100.00
52511;BME280;63918;51.700;17.998;2022-12-18T04:24:12;101788.08;;;-6.35;100.00
52511;BME280;63918;51.700;17.998;2022-12-18T04:26:39;101786.13;;;-6.43;100.00
52511;BME280;63918;51.700;17.998;2022-12-18T04:29:05;101790.42;;;-6.38;100.00
52511;BME280;63918;51.700;17.998;2022-12-18T04:31:31;101792.08;;;-6.47;100.00
52511;BME280;63918;51.700;17.998;2022-12-18T04:33:58;101789.83;;;-6.53;100.00
52511;BME280;63918;51.700;17.998;2022-12-18T04:36:24;101797.73;;;-6.51;100.00
52511;BME280;63918;51.700;17.998;2022-12-18T04:38:51;101798.53;;;-6.38;100.00
52511;BME280;63918;51.700;17.998;2022-12-18T04:41:17;101803.02;;;-6.39;100.00
52511;BME280;63918;51.700;17.998;2022-12-18T04:43:44;101806.42;;;-6.38;100.00
52511;BME280;63918;51.700;17.998;2022-12-18T04:46:10;101804.22;;;-6.33;100.00
52511;BME280;63918;51.700;17.998;2022-12-18T04:48:37;101807.71;;;-6.20;100.00
52511;BME280;63918;51.700;17.998;2022-12-18T04:51:04;101813.73;;;-6.35;100.00
52511;BME280;63918;51.700;17.998;2022-12-18T04:53:31;101811.95;;;-6.38;100.00
52511;BME280;63918;51.700;17.998;2022-12-18T04:56:12;101819.88;;;-6.53;100.00
52511;BME280;63918;51.700;17.998;2022-12-18T04:58:40;101821.42;;;-6.66;100.00
52511;BME280;63918;51.700;17.998;2022-12-18T05:01:08;101829.55;;;-6.69;100.00
52511;BME280;63918;51.700;17.998;2022-12-18T05:03:35;101826.89;;;-6.77;100.00
52511;BME280;63918;51.700;17.998;2022-12-18T05:06:03;101833.98;;;-6.87;100.00
52511;BME280;63918;51.700;17.998;2022-12-18T05:08:31;101834.55;;;-6.90;100.00
52511;BME280;63918;51.700;17.998;2022-12-18T05:11:05;101835.70;;;-6.93;100.00
52511;BME280;63918;51.700;17.998;2022-12-18T05:13:33;101839.19;;;-6.95;100.00
52511;BME280;63918;51.700;17.998;2022-12-18T05:16:00;101846.45;;;-6.93;100.00
52511;BME280;63918;51.700;17.998;2022-12-18T05:18:27;101845.75;;;-6.93;100.00
52511;BME280;63918;51.700;17.998;2022-12-18T05:20:54;101848.11;;;-6.84;100.00
52511;BME280;63918;51.700;17.998;2022-12-18T05:23:22;101851.08;;;-6.75;100.00
52511;BME280;63918;51.700;17.998;2022-12-18T05:25:53;101853.77;;;-6.84;100.00
52511;BME280;63918;51.700;17.998;2022-12-18T05:28:20;101861.05;;;-7.01;100.00
52511;BME280;63918;51.700;17.998;2022-12-18T05:30:48;101858.11;;;-7.05;100.00
52511;BME280;63918;51.700;17.998;2022-12-18T05:33:15;101856.02;;;-7.13;100.00
52511;BME280;63918;51.700;17.998;2022-12-18T05:35:42;101852.26;;;-7.10;100.00
52511;BME280;63918;51.700;17.998;2022-12-18T05:38:08;101854.25;;;-7.05;100.00
52511;BME280;63918;51.700;17.998;2022-12-18T05:40:35;101860.81;;;-6.97;100.00
52511;BME280;63918;51.700;17.998;2022-12-18T05:43:03;101864.15;;;-6.88;100.00
52511;BME280;63918;51.700;17.998;2022-12-18T05:45:29;101869.35;;;-6.81;100.00
52511;BME280;63918;51.700;17.998;2022-12-18T05:47:56;101869.87;;;-6.79;100.00
52511;BME280;63918;51.700;17.998;2022-12-18T05:50:22;101873.06;;;-6.98;100.00
52511;BME280;63918;51.700;17.998;2022-12-18T05:52:49;101872.83;;;-6.97;100.00
52511;BME280;63918;51.700;17.998;2022-12-18T05:55:15;101878.13;;;-7.13;100.00
52511;BME280;63918;51.700;17.998;2022-12-18T05:57:42;101886.38;;;-7.14;100.00
52511;BME280;63918;51.700;17.998;2022-12-18T06:00:09;101881.23;;;-7.12;100.00
52511;BME280;63918;51.700;17.998;2022-12-18T06:02:36;101881.78;;;-7.08;100.00
52511;BME280;63918;51.700;17.998;2022-12-18T06:05:02;101884.80;;;-7.04;100.00
52511;BME280;63918;51.700;17.998;2022-12-18T06:07:29;101890.13;;;-7.04;100.00
52511;BME280;63918;51.700;17.998;2022-12-18T06:09:55;101893.46;;;-7.00;100.00
52511;BME280;63918;51.700;17.998;2022-12-18T06:12:22;101891.37;;;-6.94;100.00
52511;BME280;63918;51.700;17.998;2022-12-18T06:14:48;101894.00;;;-6.89;100.00
52511;BME280;63918;51.700;17.998;2022-12-18T06:17:15;101895.27;;;-6.94;100.00
52511;BME280;63918;51.700;17.998;2022-12-18T06:19:41;101894.30;;;-6.84;100.00
52511;BME280;63918;51.700;17.998;2022-12-18T06:22:07;101899.38;;;-6.86;100.00
52511;BME280;63918;51.700;17.998;2022-12-18T06:24:34;101905.08;;;-6.87;100.00
52511;BME280;63918;51.700;17.998;2022-12-18T06:27:00;101904.65;;;-7.01;100.00
52511;BME280;63918;51.700;17.998;2022-12-18T06:29:27;101905.26;;;-7.04;100.00
52511;BME280;63918;51.700;17.998;2022-12-18T06:31:53;101909.54;;;-7.14;100.00
52511;BME280;63918;51.700;17.998;2022-12-18T06:34:19;101916.68;;;-7.13;100.00
52511;BME280;63918;51.700;17.998;2022-12-18T06:36:46;101916.80;;;-7.12;100.00
52511;BME280;63918;51.700;17.998;2022-12-18T06:39:12;101930.39;;;-7.12;100.00
52511;BME280;63918;51.700;17.998;2022-12-18T06:41:39;101938.41;;;-6.96;100.00
52511;BME280;63918;51.700;17.998;2022-12-18T06:44:05;101940.85;;;-6.77;100.00
52511;BME280;63918;51.700;17.998;2022-12-18T06:46:32;101943.34;;;-6.79;100.00
52511;BME280;63918;51.700;17.998;2022-12-18T06:48:59;101948.22;;;-7.02;100.00
52511;BME280;63918;51.700;17.998;2022-12-18T06:51:25;101950.08;;;-7.05;100.00
52511;BME280;63918;51.700;17.998;2022-12-18T06:53:52;101956.05;;;-7.05;100.00
52511;BME280;63918;51.700;17.998;2022-12-18T06:56:18;101955.02;;;-7.14;100.00
52511;BME280;63918;51.700;17.998;2022-12-18T06:58:45;101961.28;;;-7.16;100.00
52511;BME280;63918;51.700;17.998;2022-12-18T07:01:12;101969.39;;;-7.04;100.00
52511;BME280;63918;51.700;17.998;2022-12-18T07:03:40;101971.48;;;-7.06;100.00
52511;BME280;63918;51.700;17.998;2022-12-18T07:06:11;101971.69;;;-7.05;100.00
52511;BME280;63918;51.700;17.998;2022-12-18T07:08:39;101968.20;;;-7.01;100.00
52511;BME280;63918;51.700;17.998;2022-12-18T07:11:05;101971.93;;;-6.99;100.00
52511;BME280;63918;51.700;17.998;2022-12-18T07:13:32;101977.95;;;-7.02;100.00
52511;BME280;63918;51.700;17.998;2022-12-18T07:16:06;101981.89;;;-7.05;100.00
52511;BME280;63918;51.700;17.998;2022-12-18T07:18:33;101988.20;;;-7.04;100.00
52511;BME280;63918;51.700;17.998;2022-12-18T07:21:30;101988.92;;;-6.94;100.00
52511;BME280;63918;51.700;17.998;2022-12-18T07:23:56;101991.05;;;-6.83;100.00
52511;BME280;63918;51.700;17.998;2022-12-18T07:26:23;101997.02;;;-6.79;100.00
52511;BME280;63918;51.700;17.998;2022-12-18T07:28:50;102001.11;;;-6.60;100.00
52511;BME280;63918;51.700;17.998;2022-12-18T07:31:19;102008.42;;;-6.65;100.00
52511;BME280;63918;51.700;17.998;2022-12-18T07:33:46;102007.66;;;-6.65;100.00
52511;BME280;63918;51.700;17.998;2022-12-18T07:36:13;102003.77;;;-6.69;100.00
52511;BME280;63918;51.700;17.998;2022-12-18T07:38:40;102007.80;;;-6.64;100.00
52511;BME280;63918;51.700;17.998;2022-12-18T07:41:09;102010.64;;;-6.50;100.00
52511;BME280;63918;51.700;17.998;2022-12-18T07:43:37;102015.10;;;-6.63;100.00
52511;BME280;63918;51.700;17.998;2022-12-18T07:46:04;102018.02;;;-6.66;100.00
52511;BME280;63918;51.700;17.998;2022-12-18T07:48:31;102019.09;;;-6.88;100.00
52511;BME280;63918;51.700;17.998;2022-12-18T07:51:02;102019.90;;;-6.74;100.00
52511;BME280;63918;51.700;17.998;2022-12-18T07:53:31;102025.34;;;-6.80;100.00
52511;BME280;63918;51.700;17.998;2022-12-18T07:56:00;102022.98;;;-6.84;100.00
52511;BME280;63918;51.700;17.998;2022-12-18T07:58:28;102029.11;;;-6.98;100.00
52511;BME280;63918;51.700;17.998;2022-12-18T08:01:06;102028.86;;;-7.06;100.00
52511;BME280;63918;51.700;17.998;2022-12-18T08:03:33;102025.05;;;-6.94;100.00
52511;BME280;63918;51.700;17.998;2022-12-18T08:06:00;102029.91;;;-6.98;100.00
52511;BME280;63918;51.700;17.998;2022-12-18T08:08:28;102040.19;;;-7.05;100.00
52511;BME280;63918;51.700;17.998;2022-12-18T08:10:56;102042.06;;;-6.98;100.00
52511;BME280;63918;51.700;17.998;2022-12-18T08:13:23;102043.59;;;-6.88;100.00
52511;BME280;63918;51.700;17.998;2022-12-18T08:15:58;102043.59;;;-6.86;100.00
52511;BME280;63918;51.700;17.998;2022-12-18T08:18:25;102042.56;;;-6.84;100.00
52511;BME280;63918;51.700;17.998;2022-12-18T08:20:51;102042.12;;;-6.73;100.00
52511;BME280;63918;51.700;17.998;2022-12-18T08:23:18;102044.71;;;-6.63;100.00
52511;BME280;63918;51.700;17.998;2022-12-18T08:25:45;102047.61;;;-6.49;100.00
52511;BME280;63918;51.700;17.998;2022-12-18T08:28:11;102051.40;;;-6.40;100.00
52511;BME280;63918;51.700;17.998;2022-12-18T08:30:38;102062.30;;;-6.41;100.00
52511;BME280;63918;51.700;17.998;2022-12-18T08:33:05;102064.34;;;-6.70;100.00
52511;BME280;63918;51.700;17.998;2022-12-18T08:35:35;102059.44;;;-6.71;100.00
52511;BME280;63918;51.700;17.998;2022-12-18T08:38:03;102063.63;;;-6.75;100.00
52511;BME280;63918;51.700;17.998;2022-12-18T08:40:30;102064.71;;;-6.77;100.00
52511;BME280;63918;51.700;17.998;2022-12-18T08:42:56;102065.16;;;-6.63;100.00
52511;BME280;63918;51.700;17.998;2022-12-18T08:45:48;102063.80;;;-6.45;100.00
52511;BME280;63918;51.700;17.998;2022-12-18T08:48:15;102069.80;;;-6.56;100.00
52511;BME280;63918;51.700;17.998;2022-12-18T08:50:41;102070.48;;;-6.57;100.00
52511;BME280;63918;51.700;17.998;2022-12-18T08:53:08;102068.54;;;-6.32;100.00
52511;BME280;63918;51.700;17.998;2022-12-18T08:55:35;102083.79;;;-6.20;100.00
52511;BME280;63918;51.700;17.998;2022-12-18T08:58:01;102089.44;;;-6.20;100.00
52511;BME280;63918;51.700;17.998;2022-12-18T09:00:28;102092.42;;;-6.29;100.00
52511;BME280;63918;51.700;17.998;2022-12-18T09:02:54;102093.85;;;-6.39;100.00
52511;BME280;63918;51.700;17.998;2022-12-18T09:05:21;102097.73;;;-6.42;100.00
52511;BME280;63918;51.700;17.998;2022-12-18T09:07:47;102095.70;;;-6.60;100.00
52511;BME280;63918;51.700;17.998;2022-12-18T09:10:14;102095.14;;;-6.62;100.00
52511;BME280;63918;51.700;17.998;2022-12-18T09:12:40;102085.27;;;-6.51;100.00
52511;BME280;63918;51.700;17.998;2022-12-18T09:15:07;102086.46;;;-6.40;100.00
52511;BME280;63918;51.700;17.998;2022-12-18T09:17:33;102090.86;;;-6.48;100.00
52511;BME280;63918;51.700;17.998;2022-12-18T09:19:59;102092.21;;;-6.30;100.00
52511;BME280;63918;51.700;17.998;2022-12-18T09:22:26;102086.60;;;-6.26;100.00
52511;BME280;63918;51.700;17.998;2022-12-18T09:24:52;102087.96;;;-6.17;100.00
52511;BME280;63918;51.700;17.998;2022-12-18T09:27:20;102085.56;;;-6.01;100.00
52511;BME280;63918;51.700;17.998;2022-12-18T09:29:46;102074.17;;;-6.02;100.00
52511;BME280;63918;51.700;17.998;2022-12-18T09:32:14;102077.59;;;-6.20;100.00
52511;BME280;63918;51.700;17.998;2022-12-18T09:34:40;102075.83;;;-5.99;100.00
52511;BME280;63918;51.700;17.998;2022-12-18T09:37:07;102080.06;;;-6.26;100.00
52511;BME280;63918;51.700;17.998;2022-12-18T09:39:33;102077.30;;;-5.87;100.00
52511;BME280;63918;51.700;17.998;2022-12-18T09:42:00;102072.84;;;-5.68;100.00
52511;BME280;63918;51.700;17.998;2022-12-18T09:44:33;102071.83;;;-6.00;100.00
52511;BME280;63918;51.700;17.998;2022-12-18T09:47:18;102069.77;;;-6.11;100.00
52511;BME280;63918;51.700;17.998;2022-12-18T09:49:53;102070.09;;;-6.14;100.00
52511;BME280;63918;51.700;17.998;2022-12-18T09:52:25;102064.13;;;-6.11;100.00
52511;BME280;63918;51.700;17.998;2022-12-18T09:54:56;102057.88;;;-6.18;100.00
52511;BME280;63918;51.700;17.998;2022-12-18T09:57:25;102058.84;;;-6.11;100.00
52511;BME280;63918;51.700;17.998;2022-12-18T09:59:55;102059.83;;;-5.77;100.00
52511;BME280;63918;51.700;17.998;2022-12-18T10:02:24;102050.99;;;-5.81;100.00
52511;BME280;63918;51.700;17.998;2022-12-18T10:05:05;102048.02;;;-5.63;100.00
52511;BME280;63918;51.700;17.998;2022-12-18T10:10:32;102045.40;;;-5.92;100.00
52511;BME280;63918;51.700;17.998;2022-12-18T10:16:09;102048.98;;;-5.61;100.00
52511;BME280;63918;51.700;17.998;2022-12-18T10:19:01;102049.27;;;-5.63;100.00
52511;BME280;63918;51.700;17.998;2022-12-18T10:21:51;102055.15;;;-5.59;100.00
52511;BME280;63918;51.700;17.998;2022-12-18T10:24:37;102057.04;;;-6.06;100.00
52511;BME280;63918;51.700;17.998;2022-12-18T10:27:15;102051.55;;;-5.99;100.00
52511;BME280;63918;51.700;17.998;2022-12-18T10:29:43;102054.26;;;-5.88;100.00
52511;BME280;63918;51.700;17.998;2022-12-18T10:32:20;102055.14;;;-5.90;100.00
52511;BME280;63918;51.700;17.998;2022-12-18T10:34:48;102051.24;;;-6.23;100.00
52511;BME280;63918;51.700;17.998;2022-12-18T10:37:21;102053.71;;;-6.00;100.00
52511;BME280;63918;51.700;17.998;2022-12-18T10:40:07;102061.98;;;-6.23;100.00
52511;BME280;63918;51.700;17.998;2022-12-18T10:42:36;102062.23;;;-6.11;100.00
52511;BME280;63918;51.700;17.998;2022-12-18T10:45:14;102054.80;;;-5.78;100.00
52511;BME280;63918;51.700;17.998;2022-12-18T10:47:46;102057.20;;;-5.95;100.00
52511;BME280;63918;51.700;17.998;2022-12-18T10:50:28;102048.86;;;-6.12;100.00
52511;BME280;63918;51.700;17.998;2022-12-18T10:52:58;102049.38;;;-5.68;100.00
52511;BME280;63918;51.700;17.998;2022-12-18T10:55:33;102058.05;;;-5.67;100.00
52511;BME280;63918;51.700;17.998;2022-12-18T11:01:14;102061.05;;;-5.48;100.00
52511;BME280;63918;51.700;17.998;2022-12-18T11:03:44;102058.42;;;-5.60;100.00
52511;BME280;63918;51.700;17.998;2022-12-18T11:06:21;102054.20;;;-5.54;100.00
52511;BME280;63918;51.700;17.998;2022-12-18T11:09:03;102062.59;;;-5.59;100.00
52511;BME280;63918;51.700;17.998;2022-12-18T11:11:32;102069.23;;;-5.61;100.00
52511;BME280;63918;51.700;17.998;2022-12-18T11:14:19;102065.92;;;-5.51;100.00
52511;BME280;63918;51.700;17.998;2022-12-18T11:16:49;102065.01;;;-5.51;100.00
52511;BME280;63918;51.700;17.998;2022-12-18T11:19:36;102063.55;;;-5.40;100.00
52511;BME280;63918;51.700;17.998;2022-12-18T11:22:27;102074.52;;;-5.84;100.00
52511;BME280;63918;51.700;17.998;2022-12-18T11:25:16;102071.30;;;-5.75;100.00
52511;BME280;63918;51.700;17.998;2022-12-18T11:28:27;102072.50;;;-5.99;100.00
52511;BME280;63918;51.700;17.998;2022-12-18T11:31:26;102074.92;;;-6.05;100.00
52511;BME280;63918;51.700;17.998;2022-12-18T11:37:13;102082.94;;;-5.40;100.00
52511;BME280;63918;51.700;17.998;2022-12-18T11:39:44;102082.67;;;-5.37;100.00
52511;BME280;63918;51.700;17.998;2022-12-18T11:42:21;102087.34;;;-5.62;100.00
52511;BME280;63918;51.700;17.998;2022-12-18T11:45:18;102092.01;;;-5.27;100.00
52511;BME280;63918;51.700;17.998;2022-12-18T11:48:01;102092.27;;;-4.98;100.00
52511;BME280;63918;51.700;17.998;2022-12-18T11:53:02;102099.23;;;-5.34;100.00
52511;BME280;63918;51.700;17.998;2022-12-18T11:58:56;102100.61;;;-5.58;100.00
52511;BME280;63918;51.700;17.998;2022-12-18T12:01:50;102105.95;;;-5.41;100.00
52511;BME280;63918;51.700;17.998;2022-12-18T12:13:15;102094.09;;;-5.06;100.00
52511;BME280;63918;51.700;17.998;2022-12-18T12:16:08;102092.23;;;-4.93;100.00
52511;BME280;63918;51.700;17.998;2022-12-18T12:18:59;102088.40;;;-4.55;100.00
52511;BME280;63918;51.700;17.998;2022-12-18T12:21:35;102087.09;;;-4.59;100.00
52511;BME280;63918;51.700;17.998;2022-12-18T12:35:33;102072.39;;;-4.98;100.00
52511;BME280;63918;51.700;17.998;2022-12-18T12:38:10;102071.95;;;-4.99;100.00
52511;BME280;63918;51.700;17.998;2022-12-18T12:40:53;102075.52;;;-5.00;100.00
52511;BME280;63918;51.700;17.998;2022-12-18T12:43:35;102076.58;;;-4.68;100.00
52511;BME280;63918;51.700;17.998;2022-12-18T12:46:07;102082.46;;;-4.72;100.00
52511;BME280;63918;51.700;17.998;2022-12-18T12:51:12;102085.23;;;-5.06;100.00
52511;BME280;63918;51.700;17.998;2022-12-18T12:53:40;102087.27;;;-5.19;100.00
52511;BME280;63918;51.700;17.998;2022-12-18T12:56:10;102086.81;;;-5.09;100.00
52511;BME280;63918;51.700;17.998;2022-12-18T13:01:41;102089.05;;;-5.01;100.00
52511;BME280;63918;51.700;17.998;2022-12-18T13:04:31;102086.13;;;-4.86;100.00
52511;BME280;63918;51.700;17.998;2022-12-18T13:07:26;102078.92;;;-5.06;100.00
52511;BME280;63918;51.700;17.998;2022-12-18T13:13:04;102091.20;;;-5.05;100.00
52511;BME280;63918;51.700;17.998;2022-12-18T13:15:45;102100.34;;;-4.83;100.00
52511;BME280;63918;51.700;17.998;2022-12-18T13:18:18;102094.02;;;-4.73;100.00
52511;BME280;63918;51.700;17.998;2022-12-18T13:21:01;102096.04;;;-4.70;100.00
52511;BME280;63918;51.700;17.998;2022-12-18T13:23:36;102095.13;;;-4.82;100.00
52511;BME280;63918;51.700;17.998;2022-12-18T13:34:16;102100.92;;;-5.09;100.00
52511;BME280;63918;51.700;17.998;2022-12-18T13:36:44;102096.77;;;-5.19;100.00
52511;BME280;63918;51.700;17.998;2022-12-18T13:39:23;102091.27;;;-5.02;100.00
52511;BME280;63918;51.700;17.998;2022-12-18T13:44:57;102085.18;;;-5.21;100.00
52511;BME280;63918;51.700;17.998;2022-12-18T13:47:34;102080.30;;;-5.48;100.00
52511;BME280;63918;51.700;17.998;2022-12-18T13:50:20;102077.86;;;-5.40;100.00
52511;BME280;63918;51.700;17.998;2022-12-18T13:52:52;102081.40;;;-5.53;100.00
52511;BME280;63918;51.700;17.998;2022-12-18T13:55:19;102079.98;;;-5.38;100.00
52511;BME280;63918;51.700;17.998;2022-12-18T13:57:46;102085.85;;;-5.51;100.00
52511;BME280;63918;51.700;17.998;2022-12-18T14:00:27;102086.21;;;-5.64;100.00